Time;durP1;ratioP1;P1;durP2;ratioP2;P2;SDS_P1;SDS_P2;PMS_P1;PMS_P2;Temp;Humidity;BMP_temperature;BMP_pressure;BME280_temperature;BME280_humidity;BME280_pressure;Samples;Min_cycle;Max_cycle;Signal;HPM_P1;HPM_P2
2022/01/29 00:00:55;;;;;;;0.30;0.30;;;;;;;19.72;40.76;102621.28;5137558;27;20043;-28
2022/01/29 00:03:23;;;;;;;0.25;0.25;;;;;;;19.71;40.97;102614.09;5122477;27;20046;-28
2022/01/29 00:05:49;;;;;;;0.10;0.10;;;;;;;19.70;40.67;102607.72;5144083;27;20046;-27
2022/01/29 00:08:16;;;;;;;0.20;0.20;;;;;;;19.71;40.89;102614.09;5114591;27;20078;-27
2022/01/29 00:10:43;;;;;;;0.30;0.30;;;;;;;19.71;40.67;102611.31;5141087;27;20074;-27
2022/01/29 00:13:09;;;;;;;0.20;0.20;;;;;;;19.72;40.65;102610.22;5141688;27;20039;-27
2022/01/29 00:15:35;;;;;;;0.20;0.20;;;;;;;19.70;40.51;102599.44;5121905;27;20046;-27
2022/01/29 00:18:01;;;;;;;0.20;0.20;;;;;;;19.70;40.67;102602.19;5134119;27;20182;-27
2022/01/29 00:20:27;;;;;;;0.20;0.20;;;;;;;19.70;40.77;102593.91;5143233;27;20125;-28
2022/01/29 00:22:53;;;;;;;0.22;0.22;;;;;;;19.70;40.84;102585.59;5140604;27;20038;-27
2022/01/29 00:25:19;;;;;;;0.20;0.20;;;;;;;19.71;40.80;102580.91;5139723;27;20120;-27
2022/01/29 00:27:44;;;;;;;0.30;0.30;;;;;;;19.71;40.78;102569.84;5126027;27;20042;-28
2022/01/29 00:30:14;;;;;;;0.20;0.20;;;;;;;19.70;40.93;102569.03;5138322;27;20053;-27
2022/01/29 00:32:40;;;;;;;0.20;0.20;;;;;;;19.70;40.94;102568.19;5134788;27;20061;-27
2022/01/29 00:35:06;;;;;;;0.20;0.20;;;;;;;19.70;40.81;102562.66;5141046;27;20477;-27
2022/01/29 00:37:32;;;;;;;0.20;0.20;;;;;;;19.72;40.62;102566.84;5138628;27;20070;-27
2022/01/29 00:39:59;;;;;;;0.20;0.20;;;;;;;19.71;40.85;102570.69;5140056;27;20165;-27
2022/01/29 00:42:25;;;;;;;0.20;0.20;;;;;;;19.71;40.87;102565.16;5148675;27;20739;-27
2022/01/29 00:44:51;;;;;;;0.20;0.20;;;;;;;19.70;40.96;102562.66;5144981;27;20047;-28
2022/01/29 00:47:17;;;;;;;0.30;0.30;;;;;;;19.70;40.89;102568.19;5127355;27;20054;-27
2022/01/29 00:49:43;;;;;;;0.20;0.20;;;;;;;19.71;40.76;102573.47;5141789;27;20051;-27
2022/01/29 00:52:09;;;;;;;0.20;0.20;;;;;;;19.69;41.02;102567.34;5141620;27;20073;-28
2022/01/29 00:54:34;;;;;;;0.30;0.30;;;;;;;19.70;40.97;102570.94;5140782;27;20039;-27
2022/01/29 00:57:00;;;;;;;0.20;0.20;;;;;;;19.70;40.98;102568.19;5123654;28;20047;-27
2022/01/29 00:59:26;;;;;;;0.20;0.20;;;;;;;19.70;40.84;102549.66;5127160;27;20081;-27
2022/01/29 01:01:52;;;;;;;0.20;0.20;;;;;;;19.71;40.83;102553.28;5137511;27;20035;-27
2022/01/29 01:04:18;;;;;;;0.28;0.28;;;;;;;19.70;40.91;102560.72;5136993;27;20119;-27
2022/01/29 01:06:43;;;;;;;0.20;0.20;;;;;;;19.71;40.69;102550.50;5116987;27;20062;-27
2022/01/29 01:09:09;;;;;;;0.20;0.20;;;;;;;19.70;41.02;102541.38;5136680;27;20054;-28
2022/01/29 01:11:35;;;;;;;0.22;0.22;;;;;;;19.70;40.69;102535.84;5125482;28;20486;-27
2022/01/29 01:14:00;;;;;;;0.20;0.20;;;;;;;19.69;40.76;102523.13;5124855;27;20035;-27
2022/01/29 01:16:26;;;;;;;0.20;0.20;;;;;;;19.71;41.05;102503.53;5140236;27;20039;-27
2022/01/29 01:18:52;;;;;;;0.30;0.30;;;;;;;19.70;40.88;102499.09;5123503;27;20039;-27
2022/01/29 01:21:18;;;;;;;0.20;0.20;;;;;;;19.70;40.96;102474.22;5125867;27;20075;-28
2022/01/29 01:23:43;;;;;;;0.20;0.20;;;;;;;19.70;41.00;102475.03;5140231;27;20367;-27
2022/01/29 01:26:09;;;;;;;0.20;0.20;;;;;;;19.70;40.95;102465.91;5141184;27;20039;-27
2022/01/29 01:28:35;;;;;;;0.20;0.20;;;;;;;19.69;40.78;102470.59;5138151;27;20041;-27
2022/01/29 01:31:00;;;;;;;0.20;0.20;;;;;;;19.70;41.08;102476.97;5142888;27;20374;-27
2022/01/29 01:33:26;;;;;;;0.20;0.20;;;;;;;19.70;41.02;102485.25;5140886;27;20046;-27
2022/01/29 01:35:56;;;;;;;0.20;0.20;;;;;;;19.69;40.88;102492.72;5139682;27;20043;-27
2022/01/29 01:38:28;;;;;;;0.20;0.20;;;;;;;19.69;40.93;102487.19;5142869;27;20098;-28
2022/01/29 01:41:00;;;;;;;0.20;0.20;;;;;;;19.69;40.86;102472.50;5140285;27;20073;-28
2022/01/29 01:43:26;;;;;;;0.20;0.20;;;;;;;19.69;40.72;102467.84;5146346;27;20080;-27
2022/01/29 01:45:51;;;;;;;0.20;0.20;;;;;;;19.69;40.96;102467.84;5144628;27;20432;-27
2022/01/29 01:48:17;;;;;;;0.20;0.20;;;;;;;19.69;41.06;102455.91;5143826;27;20047;-27
2022/01/29 01:50:43;;;;;;;0.20;0.20;;;;;;;19.69;40.71;102451.25;5121320;27;20039;-27
2022/01/29 01:53:10;;;;;;;0.20;0.20;;;;;;;19.69;40.92;102459.56;5139973;27;20114;-27
2022/01/29 01:55:36;;;;;;;0.20;0.20;;;;;;;19.70;40.91;102457.63;5126303;27;20074;-27
2022/01/29 01:58:02;;;;;;;0.20;0.20;;;;;;;19.69;40.94;102453.16;5128946;27;20042;-27
2022/01/29 02:00:28;;;;;;;0.20;0.20;;;;;;;19.70;40.91;102441.03;5119553;27;20050;-27
2022/01/29 02:02:54;;;;;;;0.20;0.20;;;;;;;19.69;40.96;102429.16;5117373;27;20040;-27
2022/01/29 02:05:20;;;;;;;0.20;0.20;;;;;;;19.69;40.80;102418.09;5120378;27;20053;-27
2022/01/29 02:07:47;;;;;;;0.20;0.20;;;;;;;19.69;40.93;102415.31;5141625;27;20077;-27
2022/01/29 02:10:14;;;;;;;0.20;0.20;;;;;;;19.69;41.03;102422.75;5120180;27;20039;-27
2022/01/29 02:12:58;;;;;;;0.30;0.30;;;;;;;19.70;41.18;102418.94;5139148;27;20138;-27
2022/01/29 02:15:24;;;;;;;0.30;0.30;;;;;;;19.70;41.04;102413.41;5123518;27;20480;-28
2022/01/29 02:17:51;;;;;;;0.20;0.20;;;;;;;19.69;41.05;102409.81;5137070;27;20142;-27
2022/01/29 02:20:20;;;;;;;0.25;0.25;;;;;;;19.69;40.83;102398.75;5124435;27;20697;-28
2022/01/29 02:22:46;;;;;;;0.20;0.20;;;;;;;19.68;40.94;102394.28;5138297;27;20038;-27
2022/01/29 02:25:35;;;;;;;0.30;0.30;;;;;;;19.68;40.94;102394.28;5117382;27;20039;-27
2022/01/29 02:28:07;;;;;;;0.20;0.20;;;;;;;19.69;40.94;102403.41;5107786;27;20090;-28
2022/01/29 02:30:34;;;;;;;0.20;0.20;;;;;;;19.68;41.05;102405.34;5137282;27;20075;-27
2022/01/29 02:33:03;;;;;;;0.20;0.20;;;;;;;19.69;41.04;102397.88;5142225;27;20082;-27
2022/01/29 02:35:29;;;;;;;0.22;0.22;;;;;;;19.70;41.05;102388.53;5137561;27;20073;-27
2022/01/29 02:37:55;;;;;;;0.20;0.20;;;;;;;19.69;41.18;102387.69;5143601;27;20046;-28
2022/01/29 02:40:22;;;;;;;0.28;0.28;;;;;;;19.69;40.90;102384.06;5140265;27;20066;-28
2022/01/29 02:42:50;;;;;;;0.30;0.30;;;;;;;19.68;41.08;102374.94;5141221;27;20084;-27
2022/01/29 02:45:16;;;;;;;0.28;0.28;;;;;;;19.69;40.93;102375.75;5135072;27;20078;-28
2022/01/29 02:47:42;;;;;;;0.20;0.20;;;;;;;19.69;40.89;102367.47;5142527;27;20049;-27
2022/01/29 02:50:08;;;;;;;0.20;0.20;;;;;;;19.68;40.80;102358.34;5137698;27;20061;-28
2022/01/29 02:52:34;;;;;;;0.28;0.28;;;;;;;19.68;40.90;102358.34;5139051;27;20071;-27
2022/01/29 02:55:00;;;;;;;0.20;0.20;;;;;;;19.69;40.86;102350.91;5138437;27;20085;-27
2022/01/29 02:57:26;;;;;;;0.20;0.20;;;;;;;19.69;40.97;102346.22;5123168;27;20071;-27
2022/01/29 02:59:52;;;;;;;0.28;0.28;;;;;;;19.69;40.72;102349.00;5143419;27;20065;-28
2022/01/29 03:02:18;;;;;;;0.20;0.20;;;;;;;19.68;40.79;102341.75;5119315;28;20505;-27
2022/01/29 03:04:43;;;;;;;0.20;0.20;;;;;;;19.70;41.09;102338.78;5140229;27;20043;-27
2022/01/29 03:07:09;;;;;;;0.20;0.20;;;;;;;19.69;41.04;102339.84;5145964;27;20072;-27
2022/01/29 03:09:36;;;;;;;0.20;0.20;;;;;;;19.68;40.99;102344.53;5146994;27;20393;-27
2022/01/29 03:12:02;;;;;;;0.30;0.30;;;;;;;19.70;41.25;102338.78;5136953;27;20055;-30
2022/01/29 03:14:28;;;;;;;0.20;0.20;;;;;;;19.69;41.23;102331.53;5126836;27;20067;-27
2022/01/29 03:16:53;;;;;;;0.20;0.20;;;;;;;19.69;41.29;102332.41;5137095;27;20173;-27
2022/01/29 03:19:19;;;;;;;0.20;0.20;;;;;;;19.69;40.83;102326.88;5139452;27;20499;-27
2022/01/29 03:21:45;;;;;;;0.20;0.20;;;;;;;19.69;40.94;102314.97;5142680;27;20085;-27
2022/01/29 03:24:10;;;;;;;0.20;0.20;;;;;;;19.69;40.96;102315.81;5134425;27;20412;-27
2022/01/29 03:26:36;;;;;;;0.20;0.20;;;;;;;19.70;41.09;102320.25;5142471;27;20091;-27
2022/01/29 03:29:02;;;;;;;0.20;0.20;;;;;;;19.68;41.01;102316.88;5137710;27;20049;-27
2022/01/29 03:31:29;;;;;;;0.20;0.20;;;;;;;19.70;41.02;102309.19;5123950;27;20437;-28
2022/01/29 03:33:54;;;;;;;0.20;0.20;;;;;;;19.70;41.14;102303.69;5135931;27;20035;-27
2022/01/29 03:36:20;;;;;;;0.20;0.20;;;;;;;19.70;40.87;102303.69;5145753;27;20386;-27
2022/01/29 03:38:46;;;;;;;0.20;0.20;;;;;;;19.70;40.76;102294.56;5133854;27;20047;-28
2022/01/29 03:41:13;;;;;;;0.20;0.20;;;;;;;19.69;40.90;102299.25;5145459;27;20092;-28
2022/01/29 03:43:45;;;;;;;;;;;;;;;19.69;40.90;102298.38;5140686;27;20134;-27
2022/01/29 03:46:11;;;;;;;0.20;0.20;;;;;;;19.69;41.26;102295.63;5139567;27;20297;-27
2022/01/29 03:48:38;;;;;;;0.25;0.25;;;;;;;19.69;40.88;102295.63;5137316;27;20448;-27
2022/01/29 03:51:03;;;;;;;0.20;0.20;;;;;;;19.69;41.10;102292.84;5140172;27;20476;-27
2022/01/29 03:53:29;;;;;;;0.22;0.22;;;;;;;19.70;41.14;102300.06;5117034;27;20054;-28
2022/01/29 03:55:55;;;;;;;0.20;0.20;;;;;;;19.69;40.93;102302.00;5137951;27;20473;-28
2022/01/29 03:58:20;;;;;;;0.20;0.20;;;;;;;19.69;41.07;102290.09;5140310;27;20084;-28
2022/01/29 04:00:46;;;;;;;0.20;0.20;;;;;;;19.69;40.90;102292.84;5142699;27;20049;-28
2022/01/29 04:03:12;;;;;;;0.30;0.30;;;;;;;19.70;41.09;102286.25;5138425;27;20417;-27
2022/01/29 04:05:38;;;;;;;0.20;0.20;;;;;;;19.69;41.04;102281.78;5138059;27;20440;-28
2022/01/29 04:08:09;;;;;;;0.20;0.20;;;;;;;19.70;40.98;102276.03;5141368;27;20075;-28
2022/01/29 04:10:34;;;;;;;0.20;0.20;;;;;;;19.70;41.17;102273.28;5122655;27;20454;-28
2022/01/29 04:13:01;;;;;;;0.20;0.20;;;;;;;19.70;40.97;102269.69;5131648;27;20047;-28
2022/01/29 04:15:26;;;;;;;0.20;0.20;;;;;;;19.71;41.03;102274.09;5137218;27;20458;-27
2022/01/29 04:17:52;;;;;;;0.20;0.20;;;;;;;19.70;41.03;102264.97;5136769;27;20035;-28
2022/01/29 04:20:18;;;;;;;0.20;0.20;;;;;;;19.70;41.26;102264.97;5135840;27;20466;-28
2022/01/29 04:22:44;;;;;;;0.20;0.20;;;;;;;19.70;41.15;102261.38;5135763;27;20035;-28
2022/01/29 04:25:09;;;;;;;0.20;0.20;;;;;;;19.70;41.34;102262.22;5144938;27;20046;-27
2022/01/29 04:27:40;;;;;;;0.20;0.20;;;;;;;19.71;41.05;102265.81;5133460;27;20092;-28
2022/01/29 04:30:11;;;;;;;0.20;0.20;;;;;;;19.70;40.96;102267.75;5119802;27;20094;-29
2022/01/29 04:35:18;;;;;;;0.30;0.30;;;;;;;19.70;40.95;102276.03;5165409;27;20194;-27
2022/01/29 04:37:43;;;;;;;0.20;0.20;;;;;;;19.70;41.10;102277.97;5157026;27;20034;-27
2022/01/29 04:40:10;;;;;;;0.20;0.20;;;;;;;19.70;41.00;102273.28;5152368;27;20053;-27
2022/01/29 04:42:35;;;;;;;0.20;0.20;;;;;;;19.71;41.29;102276.88;5150135;27;20042;-27
2022/01/29 04:45:01;;;;;;;0.20;0.20;;;;;;;19.70;41.12;102287.09;5150802;27;20050;-27
2022/01/29 04:47:27;;;;;;;0.20;0.20;;;;;;;19.70;40.89;102273.28;5133634;27;20142;-26
2022/01/29 04:49:53;;;;;;;0.20;0.20;;;;;;;19.69;40.95;102271.59;5148368;27;20126;-27
2022/01/29 04:52:18;;;;;;;0.20;0.20;;;;;;;19.71;41.14;102271.34;5140541;27;20048;-26
2022/01/29 04:54:45;;;;;;;0.20;0.20;;;;;;;19.70;41.00;102269.69;5148443;27;20043;-26
2022/01/29 04:57:10;;;;;;;0.20;0.20;;;;;;;19.70;41.18;102269.69;5127696;27;20082;-27
2022/01/29 04:59:36;;;;;;;0.30;0.30;;;;;;;19.70;41.10;102261.38;5148041;27;20517;-27
2022/01/29 05:02:02;;;;;;;0.20;0.20;;;;;;;19.69;41.13;102255.03;5151269;27;20046;-26
2022/01/29 05:04:28;;;;;;;0.28;0.28;;;;;;;19.71;41.19;102250.06;5137099;27;20051;-26
2022/01/29 05:06:53;;;;;;;0.20;0.20;;;;;;;19.71;41.02;102257.53;5147538;27;20046;-26
2022/01/29 05:09:19;;;;;;;0.20;0.20;;;;;;;19.70;41.12;102250.31;5146415;27;20055;-26
2022/01/29 05:11:48;;;;;;;0.20;0.20;;;;;;;19.70;41.14;102256.69;5150896;27;20034;-26
2022/01/29 05:14:25;;;;;;;0.20;0.20;;;;;;;19.70;41.22;102255.84;5154891;27;20070;-26
2022/01/29 05:27:53;;;;;;;0.20;0.20;;;;;;;19.70;41.01;102240.09;5132527;27;20068;-26
2022/01/29 05:30:18;;;;;;;0.20;0.20;;;;;;;19.70;40.96;102237.34;5147146;27;20103;-26
2022/01/29 05:32:44;;;;;;;0.20;0.20;;;;;;;19.70;41.23;102230.97;5147153;27;20039;-26
2022/01/29 05:35:10;;;;;;;0.20;0.20;;;;;;;19.71;41.17;102232.66;5148222;27;20043;-26
2022/01/29 05:37:39;;;;;;;0.20;0.20;;;;;;;19.71;41.31;102224.34;5152400;27;20043;-26
2022/01/29 05:40:05;;;;;;;0.20;0.20;;;;;;;19.71;41.03;102224.34;5152815;27;20049;-26
2022/01/29 05:42:31;;;;;;;0.20;0.20;;;;;;;19.70;41.33;102226.28;5126767;27;20039;-26
2022/01/29 05:44:57;;;;;;;0.30;0.30;;;;;;;19.71;41.13;102222.44;5143537;27;20333;-26
2022/01/29 05:47:22;;;;;;;0.28;0.28;;;;;;;19.71;41.22;102214.13;5134888;27;20043;-26
2022/01/29 05:49:48;;;;;;;0.30;0.30;;;;;;;19.71;41.03;102214.13;5141346;27;20435;-26
2022/01/29 05:52:14;;;;;;;0.20;0.20;;;;;;;19.70;40.75;102209.69;5132518;27;20056;-26
2022/01/29 05:54:40;;;;;;;0.20;0.20;;;;;;;19.71;41.28;102216.91;5134222;27;20042;-26
2022/01/29 05:57:06;;;;;;;0.20;0.20;;;;;;;19.70;40.93;102206.94;5135649;27;20497;-26
2022/01/29 05:59:35;;;;;;;0.25;0.25;;;;;;;19.70;41.31;102204.19;5132371;28;20061;-26
2022/01/29 06:02:00;;;;;;;0.20;0.20;;;;;;;19.71;41.31;102207.78;5138632;27;20512;-26
2022/01/29 06:04:26;;;;;;;0.20;0.20;;;;;;;19.71;41.12;102200.31;5140800;27;20044;-26
2022/01/29 06:06:52;;;;;;;0.20;0.20;;;;;;;19.71;41.24;102197.53;5135451;27;20050;-27
2022/01/29 06:09:17;;;;;;;0.20;0.20;;;;;;;19.71;41.16;102188.44;5139689;27;20103;-26
2022/01/29 06:11:43;;;;;;;0.20;0.20;;;;;;;19.71;41.12;102200.31;5133285;27;20417;-27
2022/01/29 06:14:09;;;;;;;0.30;0.30;;;;;;;19.71;41.05;102194.78;5138559;27;20039;-26
2022/01/29 06:16:35;;;;;;;0.30;0.30;;;;;;;19.72;41.33;102192.84;5146939;27;20102;-26
2022/01/29 06:19:01;;;;;;;0.20;0.20;;;;;;;19.70;41.31;102190.34;5126700;27;20039;-26
2022/01/29 06:21:26;;;;;;;0.20;0.20;;;;;;;19.71;41.10;102189.25;5123875;27;20046;-26
2022/01/29 06:23:52;;;;;;;0.30;0.30;;;;;;;19.72;41.36;102187.31;5124635;27;20042;-26
2022/01/29 06:26:18;;;;;;;0.30;0.30;;;;;;;19.72;41.18;102184.56;5130139;28;20039;-26
2022/01/29 06:28:44;;;;;;;0.30;0.30;;;;;;;19.71;41.31;102180.97;5130386;28;20126;-26
2022/01/29 06:31:10;;;;;;;0.20;0.20;;;;;;;19.72;41.02;102173.50;5122973;28;20050;-26
2022/01/29 06:33:36;;;;;;;0.20;0.20;;;;;;;19.70;41.26;102176.53;5125451;28;20096;-26
2022/01/29 06:36:02;;;;;;;0.20;0.20;;;;;;;19.71;41.36;102172.66;5129539;28;20441;-26
2022/01/29 06:38:28;;;;;;;0.20;0.20;;;;;;;19.71;41.36;102167.16;5128629;28;20066;-26
2022/01/29 06:40:53;;;;;;;0.20;0.20;;;;;;;19.73;41.26;102164.13;5129932;28;20049;-26
2022/01/29 06:43:19;;;;;;;0.20;0.20;;;;;;;19.72;41.45;102165.22;5106467;28;20486;-26
2022/01/29 06:45:46;;;;;;;0.20;0.20;;;;;;;19.73;41.27;102166.88;5130377;28;20043;-26
2022/01/29 06:48:12;;;;;;;0.20;0.20;;;;;;;19.73;41.18;102166.88;5111070;28;20498;-26
2022/01/29 06:50:39;;;;;;;0.25;0.25;;;;;;;19.73;41.09;102172.41;5125064;28;20119;-26
2022/01/29 06:53:05;;;;;;;0.20;0.20;;;;;;;19.72;41.45;102160.53;5106042;28;20062;-26
2022/01/29 06:55:31;;;;;;;0.25;0.25;;;;;;;19.73;41.25;102175.16;5110397;28;20070;-26
2022/01/29 06:57:57;;;;;;;0.20;0.20;;;;;;;19.72;41.04;102170.75;5130363;27;20081;-26
2022/01/29 07:00:42;;;;;;;0.20;0.20;;;;;;;19.71;41.11;102158.84;5099927;28;20096;-26
2022/01/29 07:03:08;;;;;;;0.20;0.20;;;;;;;19.72;41.26;102157.75;5121973;28;20042;-26
2022/01/29 07:05:34;;;;;;;0.30;0.30;;;;;;;19.72;41.32;102152.22;5131220;28;20527;-26
2022/01/29 07:08:00;;;;;;;0.20;0.20;;;;;;;19.72;41.10;102148.63;5128574;28;20072;-26
2022/01/29 07:10:26;;;;;;;0.20;0.20;;;;;;;19.73;41.25;102161.34;5130153;28;20047;-26
2022/01/29 07:12:51;;;;;;;0.20;0.20;;;;;;;19.71;41.36;102150.56;5110563;28;20473;-26
2022/01/29 07:15:17;;;;;;;0.20;0.20;;;;;;;19.72;41.41;102148.63;5110028;28;20043;-27
2022/01/29 07:17:43;;;;;;;0.20;0.20;;;;;;;19.71;41.10;102141.44;5129934;28;20523;-27
2022/01/29 07:20:09;;;;;;;0.20;0.20;;;;;;;19.71;41.17;102135.91;5125133;27;20066;-27
2022/01/29 07:22:35;;;;;;;0.20;0.20;;;;;;;19.71;41.21;102138.69;5121476;28;20127;-26
2022/01/29 07:25:00;;;;;;;0.20;0.20;;;;;;;19.72;41.28;102138.41;5128464;28;20350;-26
2022/01/29 07:27:26;;;;;;;0.20;0.20;;;;;;;19.72;41.21;102149.47;5108129;28;20039;-27
2022/01/29 07:29:52;;;;;;;0.20;0.20;;;;;;;19.72;41.39;102143.09;5129517;28;20473;-27
2022/01/29 07:32:17;;;;;;;0.20;0.20;;;;;;;19.74;41.35;102139.00;5126718;28;20383;-27
2022/01/29 07:34:43;;;;;;;0.20;0.20;;;;;;;19.72;41.36;102138.41;5130440;28;20043;-26
2022/01/29 07:37:09;;;;;;;0.20;0.20;;;;;;;19.73;41.07;102133.72;5128537;28;20410;-27
2022/01/29 07:39:35;;;;;;;0.20;0.20;;;;;;;19.72;41.21;102137.56;5130443;28;20049;-27
2022/01/29 07:42:00;;;;;;;0.20;0.20;;;;;;;19.73;41.10;102136.47;5125430;28;20036;-27
2022/01/29 07:44:26;;;;;;;0.20;0.20;;;;;;;19.72;41.17;102132.03;5130492;28;20046;-26
2022/01/29 07:46:52;;;;;;;0.20;0.20;;;;;;;19.72;41.10;102141.16;5129808;28;20397;-26
2022/01/29 07:49:18;;;;;;;0.20;0.20;;;;;;;19.72;41.50;102140.34;5128688;28;20047;-26
2022/01/29 07:51:43;;;;;;;0.20;0.20;;;;;;;19.73;41.03;102126.28;5124333;28;20504;-27
2022/01/29 07:54:09;;;;;;;0.20;0.20;;;;;;;19.73;41.35;102131.81;5120261;28;20132;-27
2022/01/29 07:56:35;;;;;;;0.28;0.28;;;;;;;19.74;41.42;102129.88;5129006;28;20035;-27
2022/01/29 07:59:01;;;;;;;0.20;0.20;;;;;;;19.73;41.26;102129.03;5112137;28;20035;-26
2022/01/29 08:01:27;;;;;;;0.20;0.20;;;;;;;19.74;41.32;102124.34;5109488;28;20135;-27
2022/01/29 08:03:53;;;;;;;0.20;0.20;;;;;;;19.73;41.12;102123.53;5123808;28;20133;-26
2022/01/29 08:06:22;;;;;;;0.20;0.20;;;;;;;19.74;41.06;102124.34;5129048;28;20457;-26
2022/01/29 08:08:49;;;;;;;0.20;0.20;;;;;;;19.73;41.27;102125.41;5129008;27;20325;-27
2022/01/29 08:11:15;;;;;;;0.20;0.20;;;;;;;19.74;41.07;102124.34;5123143;28;20449;-26
2022/01/29 08:13:41;;;;;;;0.20;0.20;;;;;;;19.73;41.25;102128.19;5092668;28;20050;-27
2022/01/29 08:16:06;;;;;;;0.20;0.20;;;;;;;19.73;41.31;102123.53;5126788;28;20071;-27
2022/01/29 08:18:32;;;;;;;0.20;0.20;;;;;;;19.73;41.48;102109.69;5126410;28;20053;-27
2022/01/29 08:20:58;;;;;;;0.20;0.20;;;;;;;19.74;41.07;102124.34;5127365;27;20308;-26
2022/01/29 08:23:24;;;;;;;0.20;0.20;;;;;;;19.74;41.45;102116.91;5124731;28;20050;-27
2022/01/29 08:25:50;;;;;;;0.20;0.20;;;;;;;19.74;41.26;102118.81;5125567;28;20051;-26
2022/01/29 08:28:18;;;;;;;0.20;0.20;;;;;;;19.73;41.42;102114.38;5109258;28;20039;-26
2022/01/29 08:30:44;;;;;;;0.20;0.20;;;;;;;19.72;41.29;102108.00;5126463;28;20043;-27
2022/01/29 08:33:16;;;;;;;0.20;0.20;;;;;;;19.74;41.41;102105.00;5127957;28;20460;-27
2022/01/29 08:35:42;;;;;;;0.20;0.20;;;;;;;19.74;41.16;102102.25;5127479;28;20043;-26
2022/01/29 08:38:07;;;;;;;0.20;0.20;;;;;;;19.74;41.50;102096.72;5122391;28;20051;-27
2022/01/29 08:40:37;;;;;;;0.20;0.20;;;;;;;19.73;41.18;102095.88;5127364;28;20043;-26
2022/01/29 08:43:04;;;;;;;0.20;0.20;;;;;;;19.72;41.47;102091.41;5127562;28;20131;-26
2022/01/29 08:45:30;;;;;;;0.20;0.20;;;;;;;19.73;41.20;102092.25;5128090;28;20043;-27
2022/01/29 08:47:55;;;;;;;0.20;0.20;;;;;;;19.74;41.32;102097.53;5125595;28;20051;-27
2022/01/29 08:50:21;;;;;;;0.20;0.20;;;;;;;19.73;41.28;102087.59;5124511;28;20044;-26
2022/01/29 08:52:47;;;;;;;0.20;0.20;;;;;;;19.74;41.15;102091.19;5121951;28;20051;-27
2022/01/29 08:55:13;;;;;;;0.20;0.20;;;;;;;19.73;41.12;102084.81;5129413;28;20465;-26
2022/01/29 08:57:39;;;;;;;0.20;0.20;;;;;;;19.74;41.50;102077.38;5123837;28;20046;-27
2022/01/29 09:00:06;;;;;;;0.28;0.28;;;;;;;19.73;41.27;102082.06;5109837;28;20547;-26
2022/01/29 09:02:32;;;;;;;0.10;0.10;;;;;;;19.74;41.22;102083.72;5109025;28;20062;-27
2022/01/29 09:04:58;;;;;;;0.20;0.20;;;;;;;19.74;41.43;102092.03;5111094;28;20043;-26
2022/01/29 09:07:26;;;;;;;0.20;0.20;;;;;;;19.75;41.48;102087.31;5125177;28;20079;-27
2022/01/29 09:09:52;;;;;;;0.20;0.20;;;;;;;19.75;41.17;102084.56;5128467;28;20297;-26
2022/01/29 09:12:18;;;;;;;0.20;0.20;;;;;;;19.72;41.15;102063.78;5088118;28;20443;-27
2022/01/29 09:14:44;;;;;;;0.20;0.20;;;;;;;19.74;41.27;102072.66;5124271;28;20044;-26
2022/01/29 09:17:10;;;;;;;0.20;0.20;;;;;;;19.75;41.35;102076.28;5126963;28;20047;-27
2022/01/29 09:19:38;;;;;;;0.20;0.20;;;;;;;19.76;41.40;102066.88;5125560;27;20043;-26
2022/01/29 09:22:04;;;;;;;0.20;0.20;;;;;;;19.74;41.08;102058.84;5126452;27;21756;-26
2022/01/29 09:24:30;;;;;;;0.20;0.20;;;;;;;19.74;41.43;102053.31;5128575;28;20450;-26
2022/01/29 09:26:56;;;;;;;0.20;0.20;;;;;;;19.75;41.07;102054.16;5130383;28;20482;-26
2022/01/29 09:29:22;;;;;;;0.20;0.20;;;;;;;19.75;41.38;102043.94;5113051;28;20078;-26
2022/01/29 09:31:47;;;;;;;0.20;0.20;;;;;;;19.74;41.18;102050.56;5129057;28;20039;-27
2022/01/29 09:34:13;;;;;;;0.30;0.30;;;;;;;19.74;41.14;102039.50;5112014;28;20374;-26
2022/01/29 09:36:39;;;;;;;0.20;0.20;;;;;;;19.75;41.27;102038.41;5130107;28;20039;-27
2022/01/29 09:39:04;;;;;;;0.20;0.20;;;;;;;19.74;41.11;102030.38;5131410;28;20047;-26
2022/01/29 09:41:31;;;;;;;0.20;0.20;;;;;;;19.75;41.35;102032.88;5131192;28;20055;-26
2022/01/29 09:43:56;;;;;;;0.20;0.20;;;;;;;19.75;41.32;102030.13;5129859;28;20055;-27
2022/01/29 09:46:26;;;;;;;0.20;0.20;;;;;;;19.75;41.19;102021.81;5125814;28;20493;-26
2022/01/29 09:48:53;;;;;;;0.20;0.20;;;;;;;19.75;41.06;102027.34;5110164;28;20043;-27
2022/01/29 09:51:19;;;;;;;0.20;0.20;;;;;;;19.74;41.32;102028.44;5130577;28;20040;-26
2022/01/29 09:53:45;;;;;;;0.20;0.20;;;;;;;19.74;41.41;102016.56;5121848;28;20079;-26
2022/01/29 09:56:12;;;;;;;0.20;0.20;;;;;;;19.74;41.17;102025.69;5112818;28;20047;-27
2022/01/29 09:58:39;;;;;;;0.20;0.20;;;;;;;19.75;41.44;102032.03;5111203;28;20321;-27
2022/01/29 10:01:05;;;;;;;0.20;0.20;;;;;;;19.75;41.40;102038.41;5131678;28;20047;-26
2022/01/29 10:03:31;;;;;;;0.20;0.20;;;;;;;19.76;41.47;102053.06;5105429;28;20051;-26
2022/01/29 10:05:57;;;;;;;0.20;0.20;;;;;;;19.75;41.08;102043.94;5112982;28;20050;-26
2022/01/29 10:08:24;;;;;;;0.20;0.20;;;;;;;19.76;41.27;102033.72;5107856;28;20459;-26
2022/01/29 10:10:53;;;;;;;0.20;0.20;;;;;;;19.75;41.32;102049.47;5130500;28;20054;-26
2022/01/29 10:13:37;;;;;;;0.20;0.20;;;;;;;19.76;41.31;102056.66;5093709;28;20047;-26
2022/01/29 10:16:22;;;;;;;0.20;0.20;;;;;;;19.75;41.54;102037.56;5126539;28;20094;-26
2022/01/29 10:19:05;;;;;;;0.20;0.20;;;;;;;19.75;41.31;102045.88;5093039;28;20458;-26
2022/01/29 10:21:33;;;;;;;0.20;0.20;;;;;;;19.76;41.52;102039.22;5130781;27;20047;-26
2022/01/29 10:24:06;;;;;;;0.20;0.20;;;;;;;19.77;41.40;102039.00;5120445;28;20047;-26
2022/01/29 10:26:35;;;;;;;0.20;0.20;;;;;;;19.76;41.18;102033.72;5111070;28;20104;-26
2022/01/29 10:29:03;;;;;;;0.20;0.20;;;;;;;19.77;41.21;102032.59;5131129;28;20074;-26
2022/01/29 10:31:46;;;;;;;0.20;0.20;;;;;;;19.77;41.31;102027.06;5127945;27;20082;-26
2022/01/29 10:34:35;;;;;;;0.20;0.20;;;;;;;19.76;41.46;102026.25;5091745;28;20162;-26
2022/01/29 10:37:18;;;;;;;0.20;0.20;;;;;;;19.76;41.49;102006.06;5112571;28;20054;-26
2022/01/29 10:39:49;;;;;;;0.20;0.20;;;;;;;19.75;41.35;102008.00;5095329;28;20039;-26
2022/01/29 10:42:17;;;;;;;0.20;0.20;;;;;;;19.76;41.50;102003.31;5125361;28;20078;-26
2022/01/29 10:44:45;;;;;;;0.20;0.20;;;;;;;19.76;41.33;102001.38;5128611;28;20100;-27
2022/01/29 10:47:10;;;;;;;0.10;0.10;;;;;;;19.76;41.22;102003.31;5122774;28;20296;-26
2022/01/29 10:49:39;;;;;;;0.20;0.20;;;;;;;19.77;41.46;102004.97;5128670;28;20072;-26
2022/01/29 10:52:08;;;;;;;0.20;0.20;;;;;;;19.76;41.51;102000.53;5126445;28;20079;-27
2022/01/29 10:54:38;;;;;;;0.20;0.20;;;;;;;19.76;41.52;101997.78;5128570;28;20440;-26
2022/01/29 10:57:08;;;;;;;0.20;0.20;;;;;;;19.77;41.31;101996.69;5111093;28;20046;-26
2022/01/29 10:59:36;;;;;;;0.20;0.20;;;;;;;19.76;41.46;101990.31;5110452;28;20075;-26
2022/01/29 11:02:05;;;;;;;0.20;0.20;;;;;;;19.77;41.31;101985.63;5128771;28;20100;-26
2022/01/29 11:04:33;;;;;;;0.20;0.20;;;;;;;19.77;41.37;101982.84;5092675;28;20082;-26
2022/01/29 11:07:03;;;;;;;0.20;0.20;;;;;;;19.77;41.42;101980.09;5128118;28;20047;-26
2022/01/29 11:09:30;;;;;;;0.20;0.20;;;;;;;19.77;41.49;101978.19;5112796;28;20075;-26
2022/01/29 11:11:57;;;;;;;0.20;0.20;;;;;;;19.77;41.50;101963.50;5125947;28;20050;-26
2022/01/29 11:14:24;;;;;;;0.20;0.20;;;;;;;19.77;41.44;101960.75;5128283;28;20437;-26
2022/01/29 11:16:51;;;;;;;0.20;0.20;;;;;;;19.76;41.52;101959.91;5129091;28;20482;-26
2022/01/29 11:19:21;;;;;;;0.20;0.20;;;;;;;19.76;41.46;101954.38;5105579;28;20470;-26
2022/01/29 11:21:50;;;;;;;0.20;0.20;;;;;;;19.76;41.21;101945.25;5108040;28;20158;-27
2022/01/29 11:24:17;;;;;;;0.20;0.20;;;;;;;19.77;41.41;101944.16;5108837;28;20481;-26
2022/01/29 11:26:45;;;;;;;0.20;0.20;;;;;;;19.77;41.13;101933.97;5128652;28;20077;-27
2022/01/29 11:29:31;;;;;;;0.20;0.20;;;;;;;19.78;41.31;101932.03;5127269;28;20045;-27
2022/01/29 11:32:38;;;;;;;0.20;0.20;;;;;;;19.78;41.38;101926.50;5109244;28;20473;-27
2022/01/29 11:35:18;;;;;;;0.20;0.20;;;;;;;19.77;41.55;101928.44;5095948;28;20081;-27
2022/01/29 11:38:06;;;;;;;0.20;0.20;;;;;;;19.78;41.51;101924.56;5128623;28;20088;-27